Terminal Aerodrome Forecast
Issued by NWS Albany, NY

Home | Current Version | Previous Version | Text Only | Print | Product List | Glossary On
Versions: 1 2 3 4 5 6 7 8 9 10 11 12 13 14 15 16 17 18 19
521
FTUS41 KALY 311600 AAA
TAFGFL
TAF AMD
KGFL 311600Z 3116/0112 28010G16KT P6SM SKC
     FM311800 26011G20KT P6SM SKC
     FM010000 35005KT P6SM FEW030 FEW250
     FM010300 36003KT P6SM SCT030=

USA.gov is the U.S. government's official web portal to all federal, state and local government web resources and services.